sensor_id;sensor_type;location;lat;lon;timestamp;temperature;humidity
1049;DHT22;513;51.444;7.196;2023-01-16T00:00:55;4.80;99.90
1049;DHT22;513;51.444;7.196;2023-01-16T00:03:22;4.80;99.90
1049;DHT22;513;51.444;7.196;2023-01-16T00:05:49;4.80;99.90
1049;DHT22;513;51.444;7.196;2023-01-16T00:08:17;4.80;99.90
1049;DHT22;513;51.444;7.196;2023-01-16T00:10:44;4.70;99.90
1049;DHT22;513;51.444;7.196;2023-01-16T00:13:11;4.70;99.90
1049;DHT22;513;51.444;7.196;2023-01-16T00:15:42;4.80;99.90
1049;DHT22;513;51.444;7.196;2023-01-16T00:18:09;4.80;99.90
1049;DHT22;513;51.444;7.196;2023-01-16T00:20:36;4.80;99.90
1049;DHT22;513;51.444;7.196;2023-01-16T00:23:03;4.80;99.90
1049;DHT22;513;51.444;7.196;2023-01-16T00:25:31;4.80;99.90
1049;DHT22;513;51.444;7.196;2023-01-16T00:27:57;4.80;99.90
1049;DHT22;513;51.444;7.196;2023-01-16T00:30:24;4.80;99.90
1049;DHT22;513;51.444;7.196;2023-01-16T00:32:51;4.90;99.90
1049;DHT22;513;51.444;7.196;2023-01-16T00:35:17;4.90;99.90
1049;DHT22;513;51.444;7.196;2023-01-16T00:37:44;4.80;99.90
1049;DHT22;513;51.444;7.196;2023-01-16T00:40:11;4.80;99.90
1049;DHT22;513;51.444;7.196;2023-01-16T00:42:39;4.80;99.90
1049;DHT22;513;51.444;7.196;2023-01-16T00:45:07;4.80;99.90
1049;DHT22;513;51.444;7.196;2023-01-16T00:47:34;4.80;99.90
1049;DHT22;513;51.444;7.196;2023-01-16T00:50:01;4.80;99.90
1049;DHT22;513;51.444;7.196;2023-01-16T00:52:28;4.90;99.90
1049;DHT22;513;51.444;7.196;2023-01-16T00:54:55;4.90;99.90
1049;DHT22;513;51.444;7.196;2023-01-16T00:57:22;5.10;99.90
1049;DHT22;513;51.444;7.196;2023-01-16T00:59:50;4.90;99.90
1049;DHT22;513;51.444;7.196;2023-01-16T01:02:17;5.00;99.90
1049;DHT22;513;51.444;7.196;2023-01-16T01:04:43;4.90;99.90
1049;DHT22;513;51.444;7.196;2023-01-16T01:07:10;5.00;99.90
1049;DHT22;513;51.444;7.196;2023-01-16T01:09:37;4.90;99.90
1049;DHT22;513;51.444;7.196;2023-01-16T01:12:04;4.80;99.90
1049;DHT22;513;51.444;7.196;2023-01-16T01:14:30;4.80;99.90
1049;DHT22;513;51.444;7.196;2023-01-16T01:16:59;4.70;99.90
1049;DHT22;513;51.444;7.196;2023-01-16T01:19:25;4.70;99.90
1049;DHT22;513;51.444;7.196;2023-01-16T01:21:53;4.60;99.90
1049;DHT22;513;51.444;7.196;2023-01-16T01:24:19;4.60;99.90
1049;DHT22;513;51.444;7.196;2023-01-16T01:26:46;4.70;99.90
1049;DHT22;513;51.444;7.196;2023-01-16T01:29:13;4.70;99.90
1049;DHT22;513;51.444;7.196;2023-01-16T01:31:39;4.60;99.90
1049;DHT22;513;51.444;7.196;2023-01-16T01:34:08;4.60;99.90
1049;DHT22;513;51.444;7.196;2023-01-16T01:36:34;4.50;99.90
1049;DHT22;513;51.444;7.196;2023-01-16T01:39:01;4.50;99.90
1049;DHT22;513;51.444;7.196;2023-01-16T01:41:28;4.50;99.90
1049;DHT22;513;51.444;7.196;2023-01-16T01:43:55;4.50;99.90
1049;DHT22;513;51.444;7.196;2023-01-16T01:46:25;4.50;99.90
1049;DHT22;513;51.444;7.196;2023-01-16T01:48:59;4.50;99.90
1049;DHT22;513;51.444;7.196;2023-01-16T01:51:31;4.40;99.90
1049;DHT22;513;51.444;7.196;2023-01-16T01:54:00;4.40;99.90
1049;DHT22;513;51.444;7.196;2023-01-16T01:56:32;4.40;99.90
1049;DHT22;513;51.444;7.196;2023-01-16T01:59:04;4.40;99.90
1049;DHT22;513;51.444;7.196;2023-01-16T02:01:32;4.30;99.90
1049;DHT22;513;51.444;7.196;2023-01-16T02:04:01;4.40;99.90
1049;DHT22;513;51.444;7.196;2023-01-16T02:06:34;4.30;99.90
1049;DHT22;513;51.444;7.196;2023-01-16T02:09:04;4.30;99.90
1049;DHT22;513;51.444;7.196;2023-01-16T02:11:34;4.30;99.90
1049;DHT22;513;51.444;7.196;2023-01-16T02:14:05;4.30;99.90
1049;DHT22;513;51.444;7.196;2023-01-16T02:16:32;4.30;99.90
1049;DHT22;513;51.444;7.196;2023-01-16T02:19:22;4.20;99.90
1049;DHT22;513;51.444;7.196;2023-01-16T02:22:14;4.20;99.90
1049;DHT22;513;51.444;7.196;2023-01-16T02:24:58;4.20;99.90
1049;DHT22;513;51.444;7.196;2023-01-16T02:27:45;4.20;99.90
1049;DHT22;513;51.444;7.196;2023-01-16T02:30:29;4.20;99.90
1049;DHT22;513;51.444;7.196;2023-01-16T02:33:06;4.30;99.90
1049;DHT22;513;51.444;7.196;2023-01-16T02:35:48;4.20;99.90
1049;DHT22;513;51.444;7.196;2023-01-16T02:38:21;4.20;99.90
1049;DHT22;513;51.444;7.196;2023-01-16T02:40:58;4.10;99.90
1049;DHT22;513;51.444;7.196;2023-01-16T02:43:33;4.10;99.90
1049;DHT22;513;51.444;7.196;2023-01-16T02:46:08;4.10;99.90
1049;DHT22;513;51.444;7.196;2023-01-16T02:48:46;4.20;99.90
1049;DHT22;513;51.444;7.196;2023-01-16T02:51:23;4.20;99.90
1049;DHT22;513;51.444;7.196;2023-01-16T02:53:59;4.30;99.90
1049;DHT22;513;51.444;7.196;2023-01-16T02:56:32;4.30;99.90
1049;DHT22;513;51.444;7.196;2023-01-16T02:59:01;4.40;99.90
1049;DHT22;513;51.444;7.196;2023-01-16T03:01:27;4.40;99.90
1049;DHT22;513;51.444;7.196;2023-01-16T03:04:04;4.40;99.90
1049;DHT22;513;51.444;7.196;2023-01-16T03:06:43;4.40;99.90
1049;DHT22;513;51.444;7.196;2023-01-16T03:09:21;4.40;99.90
1049;DHT22;513;51.444;7.196;2023-01-16T03:12:00;4.50;99.90
1049;DHT22;513;51.444;7.196;2023-01-16T03:14:37;4.50;99.90
1049;DHT22;513;51.444;7.196;2023-01-16T03:17:17;4.50;99.90
1049;DHT22;513;51.444;7.196;2023-01-16T03:19:58;4.50;99.90
1049;DHT22;513;51.444;7.196;2023-01-16T03:22:31;4.50;99.90
1049;DHT22;513;51.444;7.196;2023-01-16T03:25:14;4.50;99.90
1049;DHT22;513;51.444;7.196;2023-01-16T03:27:52;4.50;99.90
1049;DHT22;513;51.444;7.196;2023-01-16T03:30:26;4.50;99.90
1049;DHT22;513;51.444;7.196;2023-01-16T03:33:00;4.50;99.90
1049;DHT22;513;51.444;7.196;2023-01-16T03:35:32;4.50;99.90
1049;DHT22;513;51.444;7.196;2023-01-16T03:38:03;4.50;99.90
1049;DHT22;513;51.444;7.196;2023-01-16T03:40:34;4.40;99.90
1049;DHT22;513;51.444;7.196;2023-01-16T03:43:05;4.40;99.90
1049;DHT22;513;51.444;7.196;2023-01-16T03:45:38;4.30;99.90
1049;DHT22;513;51.444;7.196;2023-01-16T03:48:10;4.20;99.90
1049;DHT22;513;51.444;7.196;2023-01-16T03:50:42;4.10;99.90
1049;DHT22;513;51.444;7.196;2023-01-16T03:53:13;4.10;99.90
1049;DHT22;513;51.444;7.196;2023-01-16T03:55:45;4.10;99.90
1049;DHT22;513;51.444;7.196;2023-01-16T03:58:20;4.10;99.90
1049;DHT22;513;51.444;7.196;2023-01-16T04:00:51;4.00;99.90
1049;DHT22;513;51.444;7.196;2023-01-16T04:03:26;4.10;99.90
1049;DHT22;513;51.444;7.196;2023-01-16T04:05:59;4.20;99.90
1049;DHT22;513;51.444;7.196;2023-01-16T04:08:33;4.20;99.90
1049;DHT22;513;51.444;7.196;2023-01-16T04:11:02;4.20;99.90
1049;DHT22;513;51.444;7.196;2023-01-16T04:13:33;4.20;99.90
1049;DHT22;513;51.444;7.196;2023-01-16T04:16:01;4.20;99.90
1049;DHT22;513;51.444;7.196;2023-01-16T04:18:32;4.30;99.90
1049;DHT22;513;51.444;7.196;2023-01-16T04:21:03;4.20;99.90
1049;DHT22;513;51.444;7.196;2023-01-16T04:23:30;4.30;99.90
1049;DHT22;513;51.444;7.196;2023-01-16T04:25:57;4.30;99.90
1049;DHT22;513;51.444;7.196;2023-01-16T04:28:24;4.40;99.90
1049;DHT22;513;51.444;7.196;2023-01-16T04:30:51;4.50;99.90
1049;DHT22;513;51.444;7.196;2023-01-16T04:33:17;4.60;99.90
1049;DHT22;513;51.444;7.196;2023-01-16T04:35:44;4.60;99.90
1049;DHT22;513;51.444;7.196;2023-01-16T04:38:12;4.60;99.90
1049;DHT22;513;51.444;7.196;2023-01-16T04:40:39;4.50;99.90
1049;DHT22;513;51.444;7.196;2023-01-16T04:43:06;4.50;99.90
1049;DHT22;513;51.444;7.196;2023-01-16T04:45:33;4.50;99.90
1049;DHT22;513;51.444;7.196;2023-01-16T04:47:59;4.50;99.90
1049;DHT22;513;51.444;7.196;2023-01-16T04:50:26;4.30;99.90
1049;DHT22;513;51.444;7.196;2023-01-16T04:52:52;4.40;99.90
1049;DHT22;513;51.444;7.196;2023-01-16T04:55:21;4.40;99.90
1049;DHT22;513;51.444;7.196;2023-01-16T04:57:47;4.30;99.90
1049;DHT22;513;51.444;7.196;2023-01-16T05:00:14;4.30;99.90
1049;DHT22;513;51.444;7.196;2023-01-16T05:02:41;4.30;99.90
1049;DHT22;513;51.444;7.196;2023-01-16T05:05:08;4.30;99.90
1049;DHT22;513;51.444;7.196;2023-01-16T05:07:35;4.30;99.90
1049;DHT22;513;51.444;7.196;2023-01-16T05:10:01;4.30;99.90
1049;DHT22;513;51.444;7.196;2023-01-16T05:12:29;4.30;99.90
1049;DHT22;513;51.444;7.196;2023-01-16T05:14:56;4.30;99.90
1049;DHT22;513;51.444;7.196;2023-01-16T05:17:23;4.40;99.90
1049;DHT22;513;51.444;7.196;2023-01-16T05:19:52;4.50;99.90
1049;DHT22;513;51.444;7.196;2023-01-16T05:22:18;4.50;99.90
1049;DHT22;513;51.444;7.196;2023-01-16T05:24:45;4.50;99.90
1049;DHT22;513;51.444;7.196;2023-01-16T05:27:12;4.50;99.90
1049;DHT22;513;51.444;7.196;2023-01-16T05:29:40;4.50;99.90
1049;DHT22;513;51.444;7.196;2023-01-16T05:32:06;4.60;99.90
1049;DHT22;513;51.444;7.196;2023-01-16T05:34:33;4.40;99.90
1049;DHT22;513;51.444;7.196;2023-01-16T05:37:00;4.50;99.90
1049;DHT22;513;51.444;7.196;2023-01-16T05:39:27;4.60;99.90
1049;DHT22;513;51.444;7.196;2023-01-16T05:41:53;4.50;99.90
1049;DHT22;513;51.444;7.196;2023-01-16T05:44:20;4.40;99.90
1049;DHT22;513;51.444;7.196;2023-01-16T05:46:48;4.50;99.90
1049;DHT22;513;51.444;7.196;2023-01-16T05:49:16;4.40;99.90
1049;DHT22;513;51.444;7.196;2023-01-16T05:51:43;4.40;99.90
1049;DHT22;513;51.444;7.196;2023-01-16T05:54:10;4.50;99.90
1049;DHT22;513;51.444;7.196;2023-01-16T05:56:37;4.50;99.90
1049;DHT22;513;51.444;7.196;2023-01-16T05:59:04;4.50;99.90
1049;DHT22;513;51.444;7.196;2023-01-16T06:01:30;4.50;99.90
1049;DHT22;513;51.444;7.196;2023-01-16T06:03:58;4.40;99.90
1049;DHT22;513;51.444;7.196;2023-01-16T06:06:25;4.50;99.90
1049;DHT22;513;51.444;7.196;2023-01-16T06:08:52;4.40;99.90
1049;DHT22;513;51.444;7.196;2023-01-16T06:11:18;4.40;99.90
1049;DHT22;513;51.444;7.196;2023-01-16T06:13:45;4.50;99.90
1049;DHT22;513;51.444;7.196;2023-01-16T06:16:13;4.50;99.90
1049;DHT22;513;51.444;7.196;2023-01-16T06:18:39;4.50;99.90
1049;DHT22;513;51.444;7.196;2023-01-16T06:21:07;4.50;99.90
1049;DHT22;513;51.444;7.196;2023-01-16T06:23:34;4.50;99.90
1049;DHT22;513;51.444;7.196;2023-01-16T06:26:01;4.60;99.90
1049;DHT22;513;51.444;7.196;2023-01-16T06:28:31;4.60;99.90
1049;DHT22;513;51.444;7.196;2023-01-16T06:30:57;4.60;99.90
1049;DHT22;513;51.444;7.196;2023-01-16T06:33:24;4.70;99.90
1049;DHT22;513;51.444;7.196;2023-01-16T06:35:51;4.60;99.90
1049;DHT22;513;51.444;7.196;2023-01-16T06:38:19;4.60;99.90
1049;DHT22;513;51.444;7.196;2023-01-16T06:40:46;4.60;99.90
1049;DHT22;513;51.444;7.196;2023-01-16T06:43:12;4.70;99.90
1049;DHT22;513;51.444;7.196;2023-01-16T06:45:40;4.70;99.90
1049;DHT22;513;51.444;7.196;2023-01-16T06:48:07;4.70;99.90
1049;DHT22;513;51.444;7.196;2023-01-16T06:50:34;4.70;99.90
1049;DHT22;513;51.444;7.196;2023-01-16T06:53:01;4.80;99.90
1049;DHT22;513;51.444;7.196;2023-01-16T06:55:29;4.70;99.90
1049;DHT22;513;51.444;7.196;2023-01-16T06:57:55;4.70;99.90
1049;DHT22;513;51.444;7.196;2023-01-16T07:00:22;4.70;99.90
1049;DHT22;513;51.444;7.196;2023-01-16T07:02:51;4.80;99.90
1049;DHT22;513;51.444;7.196;2023-01-16T07:05:20;4.80;99.90
1049;DHT22;513;51.444;7.196;2023-01-16T07:07:46;4.80;99.90
1049;DHT22;513;51.444;7.196;2023-01-16T07:10:14;4.80;99.90
1049;DHT22;513;51.444;7.196;2023-01-16T07:12:42;4.80;99.90
1049;DHT22;513;51.444;7.196;2023-01-16T07:15:09;4.90;99.90
1049;DHT22;513;51.444;7.196;2023-01-16T07:17:53;4.90;99.90
1049;DHT22;513;51.444;7.196;2023-01-16T07:20:46;5.00;99.90
1049;DHT22;513;51.444;7.196;2023-01-16T07:23:33;5.00;99.90
1049;DHT22;513;51.444;7.196;2023-01-16T07:26:03;5.10;99.90
1049;DHT22;513;51.444;7.196;2023-01-16T07:28:32;5.20;96.40
1049;DHT22;513;51.444;7.196;2023-01-16T07:31:01;5.20;96.40
1049;DHT22;513;51.444;7.196;2023-01-16T07:33:29;5.20;96.40
1049;DHT22;513;51.444;7.196;2023-01-16T07:35:56;5.10;95.30
1049;DHT22;513;51.444;7.196;2023-01-16T07:38:22;5.10;99.90
1049;DHT22;513;51.444;7.196;2023-01-16T07:40:49;5.10;94.60
1049;DHT22;513;51.444;7.196;2023-01-16T07:43:16;5.10;96.00
1049;DHT22;513;51.444;7.196;2023-01-16T07:45:44;5.00;98.30
1049;DHT22;513;51.444;7.196;2023-01-16T07:48:17;5.00;99.90
1049;DHT22;513;51.444;7.196;2023-01-16T07:50:49;5.00;99.90
1049;DHT22;513;51.444;7.196;2023-01-16T07:53:16;5.00;99.90
1049;DHT22;513;51.444;7.196;2023-01-16T07:55:47;4.90;99.90
1049;DHT22;513;51.444;7.196;2023-01-16T07:58:14;5.00;99.50
1049;DHT22;513;51.444;7.196;2023-01-16T08:00:40;5.00;99.90
1049;DHT22;513;51.444;7.196;2023-01-16T08:03:09;5.00;99.90
1049;DHT22;513;51.444;7.196;2023-01-16T08:05:36;5.00;96.20
1049;DHT22;513;51.444;7.196;2023-01-16T08:08:03;5.00;96.80
1049;DHT22;513;51.444;7.196;2023-01-16T08:10:30;5.10;95.20
1049;DHT22;513;51.444;7.196;2023-01-16T08:12:57;5.00;95.90
1049;DHT22;513;51.444;7.196;2023-01-16T08:15:23;5.10;99.90
1049;DHT22;513;51.444;7.196;2023-01-16T08:17:50;5.00;99.90
1049;DHT22;513;51.444;7.196;2023-01-16T08:20:18;5.00;99.90
1049;DHT22;513;51.444;7.196;2023-01-16T08:22:46;4.90;99.90
1049;DHT22;513;51.444;7.196;2023-01-16T08:25:16;4.80;99.90
1049;DHT22;513;51.444;7.196;2023-01-16T08:27:43;4.70;99.90
1049;DHT22;513;51.444;7.196;2023-01-16T08:30:11;4.80;99.90
1049;DHT22;513;51.444;7.196;2023-01-16T08:32:38;4.80;99.90
1049;DHT22;513;51.444;7.196;2023-01-16T08:35:06;4.60;99.90
1049;DHT22;513;51.444;7.196;2023-01-16T08:37:34;4.60;99.90
1049;DHT22;513;51.444;7.196;2023-01-16T08:40:01;4.70;99.90
1049;DHT22;513;51.444;7.196;2023-01-16T08:42:28;4.70;99.90
1049;DHT22;513;51.444;7.196;2023-01-16T08:45:13;4.60;99.90
1049;DHT22;513;51.444;7.196;2023-01-16T08:47:59;4.60;99.90
1049;DHT22;513;51.444;7.196;2023-01-16T08:50:44;4.60;99.90
1049;DHT22;513;51.444;7.196;2023-01-16T08:53:31;4.70;99.90
1049;DHT22;513;51.444;7.196;2023-01-16T08:55:58;4.70;99.90
1049;DHT22;513;51.444;7.196;2023-01-16T08:58:24;4.60;99.90
1049;DHT22;513;51.444;7.196;2023-01-16T09:00:52;4.70;99.90
1049;DHT22;513;51.444;7.196;2023-01-16T09:03:19;4.70;99.90
1049;DHT22;513;51.444;7.196;2023-01-16T09:05:45;4.70;99.90
1049;DHT22;513;51.444;7.196;2023-01-16T09:08:12;4.70;99.90
1049;DHT22;513;51.444;7.196;2023-01-16T09:10:40;4.80;99.90
1049;DHT22;513;51.444;7.196;2023-01-16T09:13:27;4.80;99.90
1049;DHT22;513;51.444;7.196;2023-01-16T09:16:11;4.90;99.90
1049;DHT22;513;51.444;7.196;2023-01-16T09:18:38;4.90;99.90
1049;DHT22;513;51.444;7.196;2023-01-16T09:21:05;5.00;99.90
1049;DHT22;513;51.444;7.196;2023-01-16T09:23:32;5.00;99.90
1049;DHT22;513;51.444;7.196;2023-01-16T09:26:00;5.00;99.90
1049;DHT22;513;51.444;7.196;2023-01-16T09:28:27;5.10;99.90
1049;DHT22;513;51.444;7.196;2023-01-16T09:30:54;5.10;99.90
1049;DHT22;513;51.444;7.196;2023-01-16T09:33:20;5.10;99.90
1049;DHT22;513;51.444;7.196;2023-01-16T09:35:47;5.00;99.90
1049;DHT22;513;51.444;7.196;2023-01-16T09:38:14;5.00;99.90
1049;DHT22;513;51.444;7.196;2023-01-16T09:40:43;5.00;99.90
1049;DHT22;513;51.444;7.196;2023-01-16T09:43:27;5.00;99.90
1049;DHT22;513;51.444;7.196;2023-01-16T09:46:08;5.00;99.90
1049;DHT22;513;51.444;7.196;2023-01-16T09:48:39;4.80;99.90
1049;DHT22;513;51.444;7.196;2023-01-16T09:51:12;4.80;99.90
1049;DHT22;513;51.444;7.196;2023-01-16T09:53:45;4.70;99.90
1049;DHT22;513;51.444;7.196;2023-01-16T09:56:36;4.70;99.90
1049;DHT22;513;51.444;7.196;2023-01-16T09:59:29;4.60;99.90
1049;DHT22;513;51.444;7.196;2023-01-16T10:02:05;4.60;99.90
1049;DHT22;513;51.444;7.196;2023-01-16T10:04:34;4.60;99.90
1049;DHT22;513;51.444;7.196;2023-01-16T10:07:19;4.60;99.90
1049;DHT22;513;51.444;7.196;2023-01-16T10:09:56;4.50;99.90
1049;DHT22;513;51.444;7.196;2023-01-16T10:12:31;4.50;99.90
1049;DHT22;513;51.444;7.196;2023-01-16T10:15:11;4.50;99.90
1049;DHT22;513;51.444;7.196;2023-01-16T10:17:48;4.50;99.90
1049;DHT22;513;51.444;7.196;2023-01-16T10:20:35;4.50;99.90
1049;DHT22;513;51.444;7.196;2023-01-16T10:23:16;4.50;99.90
1049;DHT22;513;51.444;7.196;2023-01-16T10:25:50;4.50;99.90
1049;DHT22;513;51.444;7.196;2023-01-16T10:28:29;4.50;99.90
1049;DHT22;513;51.444;7.196;2023-01-16T10:31:02;4.50;99.90
1049;DHT22;513;51.444;7.196;2023-01-16T10:33:37;4.40;99.90
1049;DHT22;513;51.444;7.196;2023-01-16T10:36:06;4.50;99.90
1049;DHT22;513;51.444;7.196;2023-01-16T10:38:39;4.50;99.90
1049;DHT22;513;51.444;7.196;2023-01-16T10:41:13;4.50;99.90
1049;DHT22;513;51.444;7.196;2023-01-16T10:43:56;4.50;99.90
1049;DHT22;513;51.444;7.196;2023-01-16T10:46:42;4.50;99.90
1049;DHT22;513;51.444;7.196;2023-01-16T10:49:26;4.50;99.90
1049;DHT22;513;51.444;7.196;2023-01-16T10:51:54;4.50;99.90
1049;DHT22;513;51.444;7.196;2023-01-16T10:54:21;4.50;99.90
1049;DHT22;513;51.444;7.196;2023-01-16T10:56:48;4.50;99.90
1049;DHT22;513;51.444;7.196;2023-01-16T10:59:15;4.60;99.90
1049;DHT22;513;51.444;7.196;2023-01-16T11:01:44;4.70;99.90
1049;DHT22;513;51.444;7.196;2023-01-16T11:04:12;4.70;99.90
1049;DHT22;513;51.444;7.196;2023-01-16T11:06:39;4.80;99.90
1049;DHT22;513;51.444;7.196;2023-01-16T11:09:17;4.80;99.90
1049;DHT22;513;51.444;7.196;2023-01-16T11:11:45;4.80;99.90
1049;DHT22;513;51.444;7.196;2023-01-16T11:14:31;4.90;99.90
1049;DHT22;513;51.444;7.196;2023-01-16T11:17:24;4.90;99.90
1049;DHT22;513;51.444;7.196;2023-01-16T11:20:12;5.00;99.90
1049;DHT22;513;51.444;7.196;2023-01-16T11:22:40;5.00;99.90
1049;DHT22;513;51.444;7.196;2023-01-16T11:25:14;5.00;99.90
1049;DHT22;513;51.444;7.196;2023-01-16T11:27:43;5.10;97.70
1049;DHT22;513;51.444;7.196;2023-01-16T11:30:16;5.20;91.10
1049;DHT22;513;51.444;7.196;2023-01-16T11:32:47;5.20;74.20
1049;DHT22;513;51.444;7.196;2023-01-16T11:35:16;5.30;76.60
1049;DHT22;513;51.444;7.196;2023-01-16T11:37:45;5.40;74.50
1049;DHT22;513;51.444;7.196;2023-01-16T11:40:18;5.50;72.40
1049;DHT22;513;51.444;7.196;2023-01-16T11:42:53;5.60;53.50
1049;DHT22;513;51.444;7.196;2023-01-16T11:45:43;5.50;62.10
1049;DHT22;513;51.444;7.196;2023-01-16T11:48:37;5.60;69.00
1049;DHT22;513;51.444;7.196;2023-01-16T11:51:05;5.60;54.10
1049;DHT22;513;51.444;7.196;2023-01-16T11:53:34;5.60;51.90
1049;DHT22;513;51.444;7.196;2023-01-16T11:56:11;5.50;52.70
1049;DHT22;513;51.444;7.196;2023-01-16T11:58:51;5.50;70.60
1049;DHT22;513;51.444;7.196;2023-01-16T12:01:25;5.40;60.10
1049;DHT22;513;51.444;7.196;2023-01-16T12:04:19;5.40;57.80
1049;DHT22;513;51.444;7.196;2023-01-16T12:06:55;5.50;72.70
1049;DHT22;513;51.444;7.196;2023-01-16T12:09:36;5.40;55.90
1049;DHT22;513;51.444;7.196;2023-01-16T12:12:18;5.30;71.90
1049;DHT22;513;51.444;7.196;2023-01-16T12:15:09;5.20;95.10
1049;DHT22;513;51.444;7.196;2023-01-16T12:17:57;5.10;99.90
1049;DHT22;513;51.444;7.196;2023-01-16T12:20:37;5.20;99.90
1049;DHT22;513;51.444;7.196;2023-01-16T12:23:31;5.10;99.90
1049;DHT22;513;51.444;7.196;2023-01-16T12:26:08;5.10;99.90
1049;DHT22;513;51.444;7.196;2023-01-16T12:28:42;5.20;99.90
1049;DHT22;513;51.444;7.196;2023-01-16T12:31:31;5.30;99.90
1049;DHT22;513;51.444;7.196;2023-01-16T12:37:24;5.40;99.90
1049;DHT22;513;51.444;7.196;2023-01-16T12:40:07;5.30;94.70
1049;DHT22;513;51.444;7.196;2023-01-16T12:42:47;5.20;99.60
1049;DHT22;513;51.444;7.196;2023-01-16T12:45:42;5.20;97.50
1049;DHT22;513;51.444;7.196;2023-01-16T12:51:13;5.20;99.90
1049;DHT22;513;51.444;7.196;2023-01-16T12:54:14;5.20;99.90
1049;DHT22;513;51.444;7.196;2023-01-16T12:56:56;5.30;94.20
1049;DHT22;513;51.444;7.196;2023-01-16T12:59:28;5.30;94.40
1049;DHT22;513;51.444;7.196;2023-01-16T13:01:59;5.30;87.20
1049;DHT22;513;51.444;7.196;2023-01-16T13:04:35;5.30;79.60
1049;DHT22;513;51.444;7.196;2023-01-16T13:07:04;5.30;80.50
1049;DHT22;513;51.444;7.196;2023-01-16T13:09:36;5.30;90.80
1049;DHT22;513;51.444;7.196;2023-01-16T13:12:09;5.30;87.60
1049;DHT22;513;51.444;7.196;2023-01-16T13:15:00;5.20;76.90
1049;DHT22;513;51.444;7.196;2023-01-16T13:17:39;5.20;93.00
1049;DHT22;513;51.444;7.196;2023-01-16T13:20:11;5.20;94.40
1049;DHT22;513;51.444;7.196;2023-01-16T13:22:43;5.20;93.50
1049;DHT22;513;51.444;7.196;2023-01-16T13:25:17;5.20;99.90
1049;DHT22;513;51.444;7.196;2023-01-16T13:27:48;5.00;99.90
1049;DHT22;513;51.444;7.196;2023-01-16T13:30:18;5.00;99.90
1049;DHT22;513;51.444;7.196;2023-01-16T13:32:48;5.00;99.90
1049;DHT22;513;51.444;7.196;2023-01-16T13:35:19;4.90;99.90
1049;DHT22;513;51.444;7.196;2023-01-16T13:40:49;4.90;99.90
1049;DHT22;513;51.444;7.196;2023-01-16T13:43:24;4.90;99.90
1049;DHT22;513;51.444;7.196;2023-01-16T13:46:11;4.90;99.90
1049;DHT22;513;51.444;7.196;2023-01-16T13:48:39;4.90;99.90
1049;DHT22;513;51.444;7.196;2023-01-16T13:51:11;4.80;99.90
1049;DHT22;513;51.444;7.196;2023-01-16T13:53:40;4.90;99.90
1049;DHT22;513;51.444;7.196;2023-01-16T13:56:12;4.90;99.90
1049;DHT22;513;51.444;7.196;2023-01-16T13:58:41;4.80;99.90
1049;DHT22;513;51.444;7.196;2023-01-16T14:01:33;4.80;99.90
1049;DHT22;513;51.444;7.196;2023-01-16T14:04:27;4.80;99.90
1049;DHT22;513;51.444;7.196;2023-01-16T14:06:55;5.00;99.90
1049;DHT22;513;51.444;7.196;2023-01-16T14:09:58;5.00;99.90
1049;DHT22;513;51.444;7.196;2023-01-16T14:12:34;5.10;99.90
1049;DHT22;513;51.444;7.196;2023-01-16T14:15:15;5.20;99.90
1049;DHT22;513;51.444;7.196;2023-01-16T14:18:11;5.30;99.90
1049;DHT22;513;51.444;7.196;2023-01-16T14:20:49;5.20;99.90
1049;DHT22;513;51.444;7.196;2023-01-16T14:23:23;5.30;99.90
1049;DHT22;513;51.444;7.196;2023-01-16T14:26:12;5.20;99.90
1049;DHT22;513;51.444;7.196;2023-01-16T14:28:46;5.10;99.90
1049;DHT22;513;51.444;7.196;2023-01-16T14:31:23;5.10;99.90
1049;DHT22;513;51.444;7.196;2023-01-16T14:33:53;5.20;99.90
1049;DHT22;513;51.444;7.196;2023-01-16T14:36:23;5.10;99.90
1049;DHT22;513;51.444;7.196;2023-01-16T14:38:52;5.10;99.90
1049;DHT22;513;51.444;7.196;2023-01-16T14:41:25;5.20;99.90
1049;DHT22;513;51.444;7.196;2023-01-16T14:44:19;5.00;99.90
1049;DHT22;513;51.444;7.196;2023-01-16T14:47:23;4.80;99.90
1049;DHT22;513;51.444;7.196;2023-01-16T14:50:10;4.70;99.90
1049;DHT22;513;51.444;7.196;2023-01-16T14:53:10;4.60;99.90
1049;DHT22;513;51.444;7.196;2023-01-16T14:55:58;4.60;99.90
1049;DHT22;513;51.444;7.196;2023-01-16T14:58:32;4.70;99.90
1049;DHT22;513;51.444;7.196;2023-01-16T15:01:02;4.60;99.90
1049;DHT22;513;51.444;7.196;2023-01-16T15:04:00;4.60;99.90
1049;DHT22;513;51.444;7.196;2023-01-16T15:06:33;4.50;99.90
1049;DHT22;513;51.444;7.196;2023-01-16T15:09:01;4.50;99.90
1049;DHT22;513;51.444;7.196;2023-01-16T15:11:30;4.50;99.90
1049;DHT22;513;51.444;7.196;2023-01-16T15:14:12;4.50;99.90
1049;DHT22;513;51.444;7.196;2023-01-16T15:17:05;4.50;99.90
1049;DHT22;513;51.444;7.196;2023-01-16T15:19:59;4.50;99.90
1049;DHT22;513;51.444;7.196;2023-01-16T15:22:46;4.40;99.90
1049;DHT22;513;51.444;7.196;2023-01-16T15:25:25;4.40;99.90
1049;DHT22;513;51.444;7.196;2023-01-16T15:28:01;4.40;99.90
1049;DHT22;513;51.444;7.196;2023-01-16T15:30:29;4.40;99.90
1049;DHT22;513;51.444;7.196;2023-01-16T15:32:59;4.40;99.90
1049;DHT22;513;51.444;7.196;2023-01-16T15:35:40;4.40;99.90
1049;DHT22;513;51.444;7.196;2023-01-16T15:38:09;4.40;99.90
1049;DHT22;513;51.444;7.196;2023-01-16T15:40:36;4.40;99.90
1049;DHT22;513;51.444;7.196;2023-01-16T15:43:03;4.30;99.90
1049;DHT22;513;51.444;7.196;2023-01-16T15:45:53;4.30;99.90
1049;DHT22;513;51.444;7.196;2023-01-16T15:48:45;4.40;99.90
1049;DHT22;513;51.444;7.196;2023-01-16T15:51:19;4.30;99.90
1049;DHT22;513;51.444;7.196;2023-01-16T15:53:48;4.40;99.90
1049;DHT22;513;51.444;7.196;2023-01-16T15:56:22;4.30;99.90
1049;DHT22;513;51.444;7.196;2023-01-16T15:58:50;4.20;99.90
1049;DHT22;513;51.444;7.196;2023-01-16T16:01:25;4.30;99.90
1049;DHT22;513;51.444;7.196;2023-01-16T16:03:54;4.30;99.90
1049;DHT22;513;51.444;7.196;2023-01-16T16:06:22;4.40;99.90
1049;DHT22;513;51.444;7.196;2023-01-16T16:08:52;4.40;99.90
1049;DHT22;513;51.444;7.196;2023-01-16T16:11:21;4.50;99.90
1049;DHT22;513;51.444;7.196;2023-01-16T16:14:06;4.50;99.90
1049;DHT22;513;51.444;7.196;2023-01-16T16:17:02;4.50;99.90
1049;DHT22;513;51.444;7.196;2023-01-16T16:19:48;4.40;99.90
1049;DHT22;513;51.444;7.196;2023-01-16T16:22:19;4.60;99.90
1049;DHT22;513;51.444;7.196;2023-01-16T16:25:08;4.50;99.90
1049;DHT22;513;51.444;7.196;2023-01-16T16:27:42;4.50;99.90
1049;DHT22;513;51.444;7.196;2023-01-16T16:30:15;4.50;99.90
1049;DHT22;513;51.444;7.196;2023-01-16T16:32:43;4.50;99.90
1049;DHT22;513;51.444;7.196;2023-01-16T16:35:18;4.60;99.90
1049;DHT22;513;51.444;7.196;2023-01-16T16:37:45;4.70;99.90
1049;DHT22;513;51.444;7.196;2023-01-16T16:40:14;4.70;99.90
1049;DHT22;513;51.444;7.196;2023-01-16T16:42:59;4.70;99.90
1049;DHT22;513;51.444;7.196;2023-01-16T16:45:28;4.60;99.90
1049;DHT22;513;51.444;7.196;2023-01-16T16:48:19;4.50;99.90
1049;DHT22;513;51.444;7.196;2023-01-16T16:50:49;4.60;99.90
1049;DHT22;513;51.444;7.196;2023-01-16T16:53:22;4.50;99.90
1049;DHT22;513;51.444;7.196;2023-01-16T16:55:51;4.60;99.90
1049;DHT22;513;51.444;7.196;2023-01-16T16:58:21;4.60;99.90
1049;DHT22;513;51.444;7.196;2023-01-16T17:00:48;4.50;99.90
1049;DHT22;513;51.444;7.196;2023-01-16T17:03:17;4.50;99.90
1049;DHT22;513;51.444;7.196;2023-01-16T17:05:45;4.60;99.90
1049;DHT22;513;51.444;7.196;2023-01-16T17:08:17;4.50;99.90
1049;DHT22;513;51.444;7.196;2023-01-16T17:10:45;4.50;99.90
1049;DHT22;513;51.444;7.196;2023-01-16T17:13:14;4.50;99.90
1049;DHT22;513;51.444;7.196;2023-01-16T17:15:41;4.50;99.90
1049;DHT22;513;51.444;7.196;2023-01-16T17:18:08;4.50;99.90
1049;DHT22;513;51.444;7.196;2023-01-16T17:20:35;4.50;99.90